Osorno, Chile
Current Conditions -  °F | °C
As of 8:00 PM on Wednesday 22 Oct 2014 (Local Time) from SCTE Reporting Station
Clear Clear  
Wind Chill: 54°   Ceiling: Unl
Heat Index: 54°   Visibility: 6mi
Dew Point: 46°   Wind: 16mph
Humidity: 77%   Direction: 180°S
Pressure: 30.18"   Gusts: NA
Location:  40.57°S, 73.16°W
Report Text: SCTE 230000Z 18014KT CAVOK 12/08 Q1022 NOSIG
Loading
Personal Weather Stations






























Interactive Weather Map
Tropical Storm Tracking
New forecast layout! Learn more

10-Day Weather Forecast

Advertisements
Track Severe Weather on mobile